Time;durP1;ratioP1;P1;durP2;ratioP2;P2;SDS_P1;SDS_P2;PMS_P1;PMS_P2;Temp;Humidity;BMP_temperature;BMP_pressure;BME280_temperature;BME280_humidity;BME280_pressure;Samples;Min_cycle;Max_cycle;Signal;HPM_P1;HPM_P2
2023/04/07 00:01:36;;;;;;;;;1.50;1.00;;;;;22.14;34.19;101065.16;5087370;27;57518;-68
2023/04/07 00:04:02;;;;;;;;;3.00;1.75;;;;;22.14;34.14;101070.47;5072800;27;68692;-69
2023/04/07 00:06:27;;;;;;;;;3.50;1.00;;;;;22.12;34.51;101072.41;5057691;27;69793;-69
2023/04/07 00:08:52;;;;;;;;;3.75;1.75;;;;;22.13;34.30;101075.91;5063169;27;45249;-69
2023/04/07 00:11:18;;;;;;;;;1.75;1.50;;;;;22.09;33.87;101067.28;5048018;27;45456;-69
2023/04/07 00:13:43;;;;;;;;;3.00;1.25;;;;;22.09;33.87;101071.75;5093656;27;45357;-69
2023/04/07 00:16:09;;;;;;;;;3.50;1.00;;;;;22.03;34.53;101057.06;5076518;27;66787;-69
2023/04/07 00:18:34;;;;;;;;;4.25;1.00;;;;;22.10;33.97;101074.31;5058499;27;45169;-69
2023/04/07 00:20:59;;;;;;;;;1.00;1.00;;;;;22.08;34.10;101064.72;5078802;27;45427;-69
2023/04/07 00:23:26;;;;;;;;;2.75;1.00;;;;;22.05;34.26;101065.81;5061921;27;74941;-69
2023/04/07 00:25:51;;;;;;;;;0.25;0.25;;;;;22.01;34.04;101064.31;5080510;27;45186;-68
2023/04/07 00:28:16;;;;;;;;;1.50;1.25;;;;;22.06;34.29;101067.53;5096146;27;46243;-68
2023/04/07 00:30:42;;;;;;;;;1.25;1.00;;;;;22.04;34.09;101061.41;5081616;27;63956;-69
2023/04/07 00:33:07;;;;;;;;;1.25;1.00;;;;;22.02;34.15;101058.00;5073897;27;47104;-68
2023/04/07 00:35:32;;;;;;;;;1.25;1.00;;;;;22.02;33.89;101057.16;5072657;27;67781;-69
2023/04/07 00:37:58;;;;;;;;;2.50;1.00;;;;;22.02;34.24;101057.16;5055575;28;58195;-68
2023/04/07 00:40:23;;;;;;;;;2.25;1.25;;;;;22.02;33.89;101055.34;5056943;28;45468;-67
2023/04/07 00:42:49;;;;;;;;;1.25;1.00;;;;;22.00;34.13;101055.44;5041404;28;48359;-68
2023/04/07 00:45:14;;;;;;;;;1.00;1.00;;;;;21.97;34.14;101046.81;5059070;28;45365;-69
2023/04/07 00:47:40;;;;;;;;;1.00;1.00;;;;;21.95;34.31;101046.91;5069806;27;45332;-68
2023/04/07 00:50:06;;;;;;;;;2.00;1.00;;;;;21.99;34.22;101043.09;5062493;28;45514;-68
2023/04/07 00:52:32;;;;;;;;;3.50;1.00;;;;;21.97;34.13;101053.03;5060697;27;47042;-69
2023/04/07 00:54:58;;;;;;;;;4.75;1.00;;;;;21.98;34.26;101056.53;5060802;28;45296;-68
2023/04/07 00:57:24;;;;;;;;;1.00;1.00;;;;;21.98;34.08;101056.53;5062663;28;45344;-69
2023/04/07 00:59:50;;;;;;;;;1.00;0.75;;;;;21.95;33.96;101052.25;5062448;28;45482;-68
2023/04/07 01:02:21;;;;;;;;;1.00;1.00;;;;;21.97;34.26;101054.81;5056410;27;46295;-68
2023/04/07 01:05:22;;;;;;;;;1.00;1.00;;;;;21.96;34.59;101053.13;5055314;28;45860;-68
2023/04/07 01:08:02;;;;;;;;;2.50;1.00;;;;;21.95;34.05;101049.59;5074173;27;45466;-69
2023/04/07 01:10:36;;;;;;;;;2.25;1.00;;;;;21.93;34.47;101046.19;5059114;28;45490;-69
2023/04/07 01:13:07;;;;;;;;;1.00;1.00;;;;;21.92;34.18;101049.81;5062207;28;46561;-69
2023/04/07 01:15:33;;;;;;;;;1.00;1.00;;;;;21.88;34.49;101045.66;5042874;28;45266;-69
2023/04/07 01:18:06;;;;;;;;;1.50;1.00;;;;;21.92;34.04;101056.94;5052335;27;47074;-69
2023/04/07 01:20:32;;;;;;;;;0.75;0.50;;;;;21.89;34.46;101055.34;5062856;28;45398;-69
2023/04/07 01:23:02;;;;;;;;;1.00;1.00;;;;;21.89;34.65;101051.84;5061161;28;64855;-70
2023/04/07 01:25:52;;;;;;;;;2.00;1.00;;;;;21.90;34.15;101057.06;5079879;27;45401;-70
2023/04/07 01:28:41;;;;;;;;;0.75;0.25;;;;;21.86;34.71;101044.91;5079823;27;45422;-70
2023/04/07 01:31:08;;;;;;;;;2.00;0.75;;;;;21.86;33.95;101049.38;5077131;28;45406;-70
2023/04/07 01:33:34;;;;;;;;;3.00;1.00;;;;;21.87;34.51;101053.75;5074744;27;45390;-69
2023/04/07 01:36:03;;;;;;;;;1.25;1.25;;;;;21.84;34.49;101049.50;5042984;27;45680;-69
2023/04/07 01:38:28;;;;;;;;;1.00;1.00;;;;;21.85;34.27;101053.00;5054755;27;45465;-69
2023/04/07 01:40:55;;;;;;;;;2.25;1.00;;;;;21.86;34.81;101054.72;5065003;27;45841;-69
2023/04/07 01:43:22;;;;;;;;;1.25;1.00;;;;;21.84;34.63;101049.50;5060849;27;73303;-69
2023/04/07 01:45:48;;;;;;;;;0.00;0.00;;;;;21.81;34.50;101039.03;5059892;27;45686;-69
2023/04/07 01:48:14;;;;;;;;;0.00;0.00;;;;;21.86;34.20;101052.06;5066521;27;57277;-69
2023/04/07 01:50:40;;;;;;;;;1.00;1.00;;;;;21.83;34.69;101047.78;5073217;27;45221;-70
2023/04/07 01:53:06;;;;;;;;;2.00;1.00;;;;;21.84;34.79;101059.31;5068593;27;51981;-69
2023/04/07 01:55:31;;;;;;;;;3.25;1.00;;;;;21.80;34.53;101050.69;5075240;27;68460;-69
2023/04/07 01:57:57;;;;;;;;;1.50;1.00;;;;;21.82;34.41;101050.56;5050259;27;67975;-69
2023/04/07 02:00:22;;;;;;;;;2.25;0.00;;;;;21.79;34.46;101052.47;5060499;27;45285;-70
2023/04/07 02:02:51;;;;;;;;;0.75;0.25;;;;;21.80;34.40;101045.34;5083666;27;59417;-69
2023/04/07 02:05:18;;;;;;;;;1.50;1.00;;;;;21.80;34.60;101058.66;5070863;27;45367;-69
2023/04/07 02:07:58;;;;;;;;;1.00;1.00;;;;;21.79;34.79;101057.78;5075952;27;45301;-69
2023/04/07 02:10:26;;;;;;;;;2.00;1.00;;;;;21.78;34.62;101050.78;5074653;27;45459;-68
2023/04/07 02:12:51;;;;;;;;;2.25;1.00;;;;;21.77;34.25;101056.22;5062277;27;47936;-68
2023/04/07 02:15:18;;;;;;;;;1.00;0.00;;;;;21.78;34.87;101060.59;5064653;27;71884;-68
2023/04/07 02:17:51;;;;;;;;;1.00;1.00;;;;;21.76;34.48;101057.16;5088200;27;46278;-68
2023/04/07 02:20:17;;;;;;;;;2.00;1.00;;;;;21.75;34.75;101050.97;5069454;27;45395;-68
2023/04/07 02:22:43;;;;;;;;;1.00;0.00;;;;;21.75;34.16;101066.97;5061435;27;47124;-68
2023/04/07 02:25:28;;;;;;;;;0.00;0.00;;;;;21.75;34.76;101066.13;5093691;27;45847;-68
2023/04/07 02:27:55;;;;;;;;;1.00;1.00;;;;;21.71;34.79;101065.47;5060599;27;45489;-68
2023/04/07 02:30:21;;;;;;;;;0.00;0.00;;;;;21.75;34.64;101066.97;5073328;27;45639;-68
2023/04/07 02:32:46;;;;;;;;;0.50;0.00;;;;;21.72;34.56;101069.00;5080208;27;47304;-69
2023/04/07 02:35:11;;;;;;;;;1.50;0.00;;;;;21.74;34.62;101064.41;5078942;27;45307;-69
2023/04/07 02:37:40;;;;;;;;;2.75;1.00;;;;;21.74;34.43;101069.72;5068440;28;45576;-69
2023/04/07 02:40:06;;;;;;;;;1.75;0.75;;;;;21.73;34.66;101068.03;5072356;27;45521;-69
2023/04/07 02:42:31;;;;;;;;;1.00;1.00;;;;;21.70;34.97;101060.25;5073017;27;46385;-69
2023/04/07 02:44:56;;;;;;;;;1.00;1.00;;;;;21.70;34.67;101066.44;5061485;27;45410;-69
2023/04/07 02:47:22;;;;;;;;;0.50;0.00;;;;;21.67;34.33;101058.63;5054079;28;65964;-69
2023/04/07 02:49:47;;;;;;;;;1.00;0.75;;;;;21.66;34.80;101051.63;5062063;27;45652;-69
2023/04/07 02:52:13;;;;;;;;;2.00;1.00;;;;;21.69;34.54;101058.53;5072928;27;69382;-69
2023/04/07 02:54:38;;;;;;;;;1.00;0.25;;;;;21.69;34.72;101050.53;5067672;27;45357;-69
2023/04/07 02:57:03;;;;;;;;;1.50;0.00;;;;;21.67;34.50;101052.47;5070537;27;62197;-69
2023/04/07 02:59:29;;;;;;;;;1.75;1.00;;;;;21.68;34.59;101051.53;5060921;28;68287;-69
2023/04/07 03:01:54;;;;;;;;;1.00;1.00;;;;;21.67;34.81;101057.78;5063140;27;47338;-69
2023/04/07 03:04:20;;;;;;;;;0.75;0.75;;;;;21.63;34.57;101040.31;5097734;27;45441;-69
2023/04/07 03:06:46;;;;;;;;;0.00;0.00;;;;;21.65;34.89;101043.72;5076806;27;47078;-68
2023/04/07 03:09:11;;;;;;;;;1.00;1.00;;;;;21.66;34.72;101045.44;5090466;27;72950;-69
2023/04/07 03:11:37;;;;;;;;;2.00;1.00;;;;;21.64;34.86;101050.00;5061633;27;47666;-70
2023/04/07 03:14:02;;;;;;;;;1.00;1.00;;;;;21.66;34.50;101053.44;5086656;27;45515;-69
2023/04/07 03:16:27;;;;;;;;;1.00;1.00;;;;;21.64;34.66;101055.34;5077809;27;62833;-69
2023/04/07 03:18:53;;;;;;;;;1.00;1.00;;;;;21.65;34.50;101054.38;5081918;27;54457;-69
2023/04/07 03:21:18;;;;;;;;;1.75;0.00;;;;;21.63;34.49;101048.31;5064881;27;54285;-70
2023/04/07 03:23:44;;;;;;;;;1.00;1.00;;;;;21.64;34.70;101050.88;5068461;28;56026;-70
2023/04/07 03:26:09;;;;;;;;;3.00;1.00;;;;;21.64;34.61;101045.56;5088946;27;45371;-70
2023/04/07 03:28:35;;;;;;;;;1.00;0.25;;;;;21.61;34.61;101051.94;5067626;27;45557;-69
2023/04/07 03:31:01;;;;;;;;;1.00;1.00;;;;;21.58;35.07;101044.16;5078744;27;45339;-70
2023/04/07 03:33:26;;;;;;;;;1.25;1.25;;;;;21.61;34.86;101051.94;5059104;27;45412;-70
2023/04/07 03:35:52;;;;;;;;;5.75;1.00;;;;;21.63;34.95;101050.97;5092941;27;69583;-70
2023/04/07 03:38:17;;;;;;;;;1.00;1.00;;;;;21.60;35.02;101054.69;5071273;27;67275;-70
2023/04/07 03:40:42;;;;;;;;;2.00;1.00;;;;;21.60;35.08;101063.56;5071266;27;63843;-70
2023/04/07 03:43:12;;;;;;;;;2.00;1.00;;;;;21.58;34.63;101053.94;5076969;27;57656;-70
2023/04/07 03:45:38;;;;;;;;;0.75;0.00;;;;;21.58;34.57;101052.16;5065404;27;45734;-70
2023/04/07 03:48:04;;;;;;;;;2.75;0.75;;;;;21.57;35.02;101058.44;5061158;27;47107;-70
2023/04/07 03:50:29;;;;;;;;;3.00;1.00;;;;;21.55;34.56;101052.34;5070303;27;47193;-70
2023/04/07 03:52:55;;;;;;;;;1.00;1.00;;;;;21.58;35.04;101056.63;5053847;27;45493;-70
2023/04/07 03:55:21;;;;;;;;;2.00;1.00;;;;;21.53;34.57;101045.41;5062645;27;65182;-70
2023/04/07 03:57:46;;;;;;;;;1.50;1.00;;;;;21.55;34.99;101057.69;5073893;27;45331;-70
2023/04/07 04:00:12;;;;;;;;;1.00;1.00;;;;;21.55;34.36;101049.69;5072153;27;71970;-70
2023/04/07 04:02:37;;;;;;;;;2.00;0.25;;;;;21.56;34.89;101053.22;5070653;27;45526;-70
2023/04/07 04:05:03;;;;;;;;;3.25;1.00;;;;;21.53;35.12;101051.63;5060543;28;53821;-70
2023/04/07 04:07:28;;;;;;;;;2.50;0.75;;;;;21.53;35.10;101050.75;5072589;27;45487;-68
2023/04/07 04:09:54;;;;;;;;;2.00;1.00;;;;;21.54;34.90;101058.63;5071057;27;45494;-71
2023/04/07 04:12:19;;;;;;;;;2.00;1.00;;;;;21.48;34.62;101047.53;5072400;27;45244;-74
2023/04/07 04:14:45;;;;;;;;;2.75;1.00;;;;;21.51;35.09;101052.66;5078052;27;45669;-72
2023/04/07 04:17:10;;;;;;;;;1.00;0.00;;;;;21.52;34.80;101060.56;5077876;27;45407;-76
2023/04/07 04:19:35;;;;;;;;;1.00;1.00;;;;;21.51;34.97;101069.47;5074881;27;52512;-72
2023/04/07 04:22:01;;;;;;;;;1.00;0.50;;;;;21.52;35.15;101063.22;5068597;27;55894;-70
2023/04/07 04:24:26;;;;;;;;;3.25;0.00;;;;;21.50;35.11;101062.47;5084286;27;46133;-70
2023/04/07 04:26:51;;;;;;;;;0.00;0.00;;;;;21.52;34.76;101078.34;5090127;27;47900;-70
2023/04/07 04:29:17;;;;;;;;;1.25;1.25;;;;;21.52;35.04;101079.19;5069608;27;64792;-69
2023/04/07 04:31:42;;;;;;;;;3.25;0.50;;;;;21.51;34.83;101076.63;5061824;27;67152;-70
2023/04/07 04:34:07;;;;;;;;;0.00;0.00;;;;;21.50;34.74;101077.59;5049717;27;57598;-73
2023/04/07 04:36:33;;;;;;;;;3.00;1.00;;;;;21.48;34.78;101077.69;5087368;27;65639;-75
2023/04/07 04:38:58;;;;;;;;;3.00;1.50;;;;;21.48;34.84;101080.38;5072979;27;65471;-75
2023/04/07 04:41:23;;;;;;;;;1.00;1.00;;;;;21.50;35.37;101090.91;5060885;27;63470;-75
2023/04/07 04:43:49;;;;;;;;;3.00;0.50;;;;;21.49;35.09;101084.72;5073030;27;59763;-69
2023/04/07 04:46:16;;;;;;;;;1.25;1.00;;;;;21.43;35.03;101066.47;5075810;27;45563;-70
2023/04/07 04:48:41;;;;;;;;;2.00;1.00;;;;;21.48;35.22;101085.69;5058323;27;45625;-69
2023/04/07 04:51:07;;;;;;;;;2.25;2.00;;;;;21.46;35.18;101076.09;5078413;27;56879;-69
2023/04/07 04:53:32;;;;;;;;;2.25;0.25;;;;;21.50;35.00;101088.25;5074923;27;49146;-70
2023/04/07 04:55:57;;;;;;;;;1.00;1.00;;;;;21.47;35.53;101081.31;5078792;27;73903;-70
2023/04/07 04:58:23;;;;;;;;;2.00;1.00;;;;;21.49;35.32;101081.22;5095378;27;71233;-72
2023/04/07 05:00:48;;;;;;;;;3.75;0.00;;;;;21.50;35.15;101091.75;5059255;27;45689;-68
2023/04/07 05:03:13;;;;;;;;;1.00;1.00;;;;;21.50;35.35;101091.75;5067620;27;45423;-68
2023/04/07 05:05:39;;;;;;;;;2.75;1.00;;;;;21.51;35.93;101096.13;5074986;27;67571;-70
2023/04/07 05:08:05;;;;;;;;;3.75;1.00;;;;;21.51;35.51;101089.94;5062919;27;64527;-68
2023/04/07 05:10:30;;;;;;;;;1.00;0.75;;;;;21.50;35.86;101090.91;5073626;27;46859;-68
2023/04/07 05:12:55;;;;;;;;;2.00;1.00;;;;;21.50;35.52;101098.91;5071287;27;65868;-68
2023/04/07 05:15:21;;;;;;;;;3.00;2.00;;;;;21.51;35.69;101097.94;5071066;28;45309;-68
2023/04/07 05:17:49;;;;;;;;;2.75;1.00;;;;;21.47;35.90;101089.28;5085128;27;45509;-68
2023/04/07 05:20:15;;;;;;;;;1.00;0.25;;;;;21.49;35.73;101090.03;5070221;27;45501;-69
2023/04/07 05:22:41;;;;;;;;;2.25;1.25;;;;;21.49;35.75;101102.50;5057659;27;45750;-69
2023/04/07 05:25:07;;;;;;;;;2.50;2.00;;;;;21.51;36.21;101090.78;5077979;27;45280;-69
2023/04/07 05:27:32;;;;;;;;;2.75;2.00;;;;;21.49;35.61;101084.72;5046437;28;47032;-69
2023/04/07 05:29:58;;;;;;;;;3.00;1.00;;;;;21.46;36.32;101079.63;5045811;28;45388;-69
2023/04/07 05:32:23;;;;;;;;;3.50;2.00;;;;;21.51;36.18;101092.59;5076123;27;45435;-69
2023/04/07 05:34:48;;;;;;;;;2.00;2.00;;;;;21.48;35.77;101093.69;5056672;28;45504;-69
2023/04/07 05:37:14;;;;;;;;;1.00;1.00;;;;;21.49;36.23;101097.19;5095735;27;67502;-69
2023/04/07 05:39:39;;;;;;;;;3.25;1.50;;;;;21.48;35.72;101090.16;5056717;28;45448;-69
2023/04/07 05:42:05;;;;;;;;;1.00;1.00;;;;;21.49;36.06;101091.84;5063122;27;45309;-69
2023/04/07 05:44:30;;;;;;;;;2.00;1.00;;;;;21.47;35.76;101094.63;5069605;28;60193;-69
2023/04/07 05:46:55;;;;;;;;;1.00;1.00;;;;;21.41;36.12;101087.88;5062120;27;75118;-70
2023/04/07 05:49:21;;;;;;;;;3.00;1.00;;;;;21.49;36.16;101105.19;5072011;27;60764;-69
2023/04/07 05:51:46;;;;;;;;;2.75;1.25;;;;;21.47;35.94;101097.28;5064689;27;55321;-70
2023/04/07 05:54:11;;;;;;;;;1.50;1.50;;;;;21.46;35.86;101098.25;5065512;27;67233;-69
2023/04/07 05:56:37;;;;;;;;;1.00;1.00;;;;;21.50;36.08;101106.91;5073896;27;68146;-69
2023/04/07 05:59:02;;;;;;;;;3.00;2.00;;;;;21.47;36.07;101104.44;5074198;27;45161;-70
2023/04/07 06:01:28;;;;;;;;;2.75;2.00;;;;;21.48;36.22;101112.31;5061742;27;45240;-70
2023/04/07 06:03:53;;;;;;;;;2.00;1.00;;;;;21.45;35.76;101109.81;5078789;27;45399;-70
2023/04/07 06:06:18;;;;;;;;;3.00;3.00;;;;;21.45;35.81;101103.66;5065652;28;46197;-70
2023/04/07 06:08:44;;;;;;;;;2.75;1.50;;;;;21.46;36.01;101106.25;5061767;28;67184;-69
2023/04/07 06:11:10;;;;;;;;;1.75;1.75;;;;;21.46;35.64;101113.34;5096691;27;45345;-69
2023/04/07 06:13:35;;;;;;;;;2.00;2.00;;;;;21.44;35.68;101116.09;5091290;27;60813;-69
2023/04/07 06:16:00;;;;;;;;;3.00;1.00;;;;;21.47;35.77;101121.25;5080938;27;72162;-70
2023/04/07 06:18:26;;;;;;;;;2.75;1.25;;;;;21.46;35.79;101114.25;5073854;27;45372;-69
2023/04/07 06:20:51;;;;;;;;;2.00;1.00;;;;;21.46;36.05;101124.88;5097276;27;58823;-69
2023/04/07 06:23:16;;;;;;;;;1.00;1.00;;;;;21.45;35.78;101124.94;5082673;27;49413;-69
2023/04/07 06:25:42;;;;;;;;;2.50;1.00;;;;;21.44;36.09;101129.41;5068822;27;54926;-70
2023/04/07 06:28:07;;;;;;;;;2.50;1.00;;;;;21.42;36.19;101134.84;5077854;27;46687;-69
2023/04/07 06:30:33;;;;;;;;;1.00;1.00;;;;;21.43;35.77;101138.38;5079860;27;62943;-69
2023/04/07 06:32:58;;;;;;;;;3.00;2.00;;;;;21.41;35.55;101140.28;5072623;27;45325;-69
2023/04/07 06:35:25;;;;;;;;;1.00;1.00;;;;;21.42;36.16;101150.84;5066122;27;62729;-69
2023/04/07 06:37:51;;;;;;;;;3.75;2.00;;;;;21.45;36.10;101159.56;5064283;28;45745;-69
2023/04/07 06:40:16;;;;;;;;;1.50;1.00;;;;;21.42;35.62;101155.28;5074383;27;45388;-69
2023/04/07 06:42:41;;;;;;;;;1.00;1.00;;;;;21.39;35.78;101150.19;5100572;27;46514;-69
2023/04/07 06:45:07;;;;;;;;;1.00;1.00;;;;;21.40;35.71;101166.03;5077815;27;74892;-69
2023/04/07 06:47:33;;;;;;;;;2.00;2.00;;;;;21.40;36.01;101158.03;5056274;27;45651;-69
2023/04/07 06:49:58;;;;;;;;;1.75;1.75;;;;;21.42;35.97;101163.28;5080317;27;65641;-70
2023/04/07 06:52:24;;;;;;;;;3.25;1.75;;;;;21.41;35.72;101164.25;5099670;27;45374;-69
2023/04/07 06:54:49;;;;;;;;;4.50;2.00;;;;;21.40;35.81;101173.19;5081981;27;45699;-70
2023/04/07 06:57:15;;;;;;;;;0.75;0.00;;;;;21.40;35.80;101167.84;5088365;27;45672;-70
2023/04/07 06:59:40;;;;;;;;;2.00;2.00;;;;;21.37;35.76;101165.38;5067418;27;45468;-70
2023/04/07 07:02:06;;;;;;;;;1.25;1.25;;;;;21.36;35.78;101164.53;5056646;28;72824;-70
2023/04/07 07:04:32;;;;;;;;;3.25;2.25;;;;;21.38;35.62;101164.44;5062419;27;47203;-70
2023/04/07 07:06:58;;;;;;;;;2.00;0.50;;;;;21.38;35.53;101167.09;5073522;27;45502;-70
2023/04/07 07:09:23;;;;;;;;;1.00;1.00;;;;;21.37;35.76;101168.03;5062789;27;69307;-70
2023/04/07 07:11:48;;;;;;;;;1.75;1.00;;;;;21.35;35.76;101168.13;5063814;28;45233;-69
2023/04/07 07:14:14;;;;;;;;;1.00;1.00;;;;;21.37;35.58;101173.38;5059574;27;70694;-70
2023/04/07 07:16:40;;;;;;;;;2.75;1.00;;;;;21.38;35.74;101180.41;5057990;28;45746;-70
2023/04/07 07:19:05;;;;;;;;;2.00;2.00;;;;;21.36;35.29;101180.50;5096259;27;45524;-70
2023/04/07 07:21:31;;;;;;;;;2.25;2.25;;;;;21.36;35.74;101185.00;5079307;27;45349;-70
2023/04/07 07:23:56;;;;;;;;;3.75;1.00;;;;;21.35;35.73;101192.09;5081177;27;48061;-70
2023/04/07 07:26:21;;;;;;;;;4.25;2.25;;;;;21.34;35.81;101190.41;5077548;27;67049;-69
2023/04/07 07:28:47;;;;;;;;;2.00;0.25;;;;;21.34;35.53;101195.72;5055073;27;62944;-69
2023/04/07 07:31:13;;;;;;;;;3.00;1.50;;;;;21.35;35.58;101192.09;5070411;27;51816;-70
2023/04/07 07:33:40;;;;;;;;;3.75;1.25;;;;;21.34;35.61;101190.41;5078538;27;45373;-70
2023/04/07 07:36:06;;;;;;;;;5.00;2.25;;;;;21.35;35.62;101196.56;5081757;27;45458;-69
2023/04/07 07:38:32;;;;;;;;;3.75;2.00;;;;;21.34;35.63;101197.56;5076014;28;45327;-70
2023/04/07 07:40:57;;;;;;;;;2.00;2.00;;;;;21.32;35.83;101199.44;5070734;27;45297;-70
2023/04/07 07:43:23;;;;;;;;;6.50;2.00;;;;;21.32;35.45;101197.66;5085515;27;45775;-70
2023/04/07 07:45:48;;;;;;;;;2.00;2.00;;;;;21.33;35.74;101195.81;5062903;27;71430;-70
2023/04/07 07:48:13;;;;;;;;;2.00;1.25;;;;;21.33;35.79;101198.50;5063847;28;48250;-70
2023/04/07 07:50:39;;;;;;;;;3.50;2.00;;;;;21.32;35.77;101202.97;5063170;27;66584;-70
2023/04/07 07:53:04;;;;;;;;;2.75;2.00;;;;;21.33;35.53;101206.47;5072592;28;47953;-70
2023/04/07 07:55:30;;;;;;;;;6.00;2.00;;;;;21.31;35.70;101203.06;5072040;28;72403;-70
2023/04/07 07:57:55;;;;;;;;;1.00;1.00;;;;;21.30;35.42;101204.00;5090931;27;57488;-70
2023/04/07 08:00:21;;;;;;;;;4.00;2.00;;;;;21.32;35.46;101202.09;5064275;28;71491;-70
2023/04/07 08:02:46;;;;;;;;;2.25;1.75;;;;;21.31;35.72;101206.56;5073270;28;45418;-70
2023/04/07 08:05:11;;;;;;;;;1.25;1.00;;;;;21.32;35.42;101210.09;5069989;27;62537;-70
2023/04/07 08:07:37;;;;;;;;;1.75;1.00;;;;;21.29;35.69;101203.16;5073819;27;60024;-70
2023/04/07 08:10:02;;;;;;;;;5.00;3.50;;;;;21.32;35.68;101215.41;5072768;28;45629;-70
2023/04/07 08:12:28;;;;;;;;;5.50;3.00;;;;;21.31;35.85;101208.38;5069809;28;46168;-70
2023/04/07 08:14:53;;;;;;;;;3.25;1.75;;;;;21.31;35.38;101213.72;5068691;27;45252;-70
2023/04/07 08:17:18;;;;;;;;;2.50;2.00;;;;;21.30;35.47;101212.88;5074385;28;55259;-70
2023/04/07 08:19:45;;;;;;;;;3.50;2.00;;;;;21.33;35.79;101217.13;5072539;27;45637;-70
2023/04/07 08:22:10;;;;;;;;;2.00;2.00;;;;;21.26;35.33;101213.16;5081909;27;64035;-70
2023/04/07 08:24:36;;;;;;;;;2.75;1.25;;;;;21.28;35.82;101209.44;5070120;27;45395;-70
2023/04/07 08:27:01;;;;;;;;;4.00;1.75;;;;;21.30;35.25;101225.31;5078239;27;56585;-70
2023/04/07 08:29:26;;;;;;;;;2.25;2.00;;;;;21.30;35.55;101217.31;5086793;27;45280;-70
2023/04/07 08:31:52;;;;;;;;;2.00;2.00;;;;;21.29;35.24;101215.63;5070322;28;47124;-70
2023/04/07 08:34:19;;;;;;;;;1.75;1.75;;;;;21.28;35.36;101214.75;5067368;28;45454;-70
2023/04/07 08:36:45;;;;;;;;;4.00;1.50;;;;;21.25;35.60;101217.63;5050747;28;45377;-70
2023/04/07 08:39:10;;;;;;;;;2.00;2.00;;;;;21.26;35.82;101211.34;5070548;27;45409;-70
2023/04/07 08:41:38;;;;;;;;;4.50;1.00;;;;;21.29;35.82;101221.78;5046725;28;59182;-70
2023/04/07 08:44:03;;;;;;;;;4.50;2.25;;;;;21.27;35.17;101218.38;5061488;27;45657;-70
2023/04/07 08:46:29;;;;;;;;;2.25;1.75;;;;;21.27;35.67;101217.53;5069871;27;45281;-70
2023/04/07 08:48:56;;;;;;;;;4.00;2.75;;;;;21.28;35.24;101224.56;5069919;27;45344;-70
2023/04/07 08:51:31;;;;;;;;;2.00;2.00;;;;;21.27;35.27;101226.38;5066146;27;45445;-70
2023/04/07 08:54:09;;;;;;;;;2.25;1.25;;;;;21.30;35.77;101230.63;5080381;27;45953;-70
2023/04/07 08:56:37;;;;;;;;;1.00;1.00;;;;;21.30;35.32;101230.63;5067669;27;45217;-70
2023/04/07 08:59:05;;;;;;;;;3.25;1.00;;;;;21.29;35.41;101232.44;5067270;27;45511;-70
2023/04/07 09:01:31;;;;;;;;;2.50;2.00;;;;;21.27;35.24;101237.03;5064930;27;46467;-70
2023/04/07 09:03:59;;;;;;;;;6.00;2.00;;;;;21.29;35.11;101236.94;5062814;28;73444;-70
2023/04/07 09:06:26;;;;;;;;;1.75;1.50;;;;;21.27;35.63;101234.34;5085372;27;45319;-70
2023/04/07 09:08:51;;;;;;;;;3.50;1.75;;;;;21.28;35.39;101241.38;5056388;28;45780;-70
2023/04/07 09:11:16;;;;;;;;;5.00;2.00;;;;;21.29;35.54;101250.22;5076821;27;69791;-70
2023/04/07 09:13:42;;;;;;;;;1.00;1.00;;;;;21.26;35.08;101235.28;5055731;28;71471;-70
2023/04/07 09:16:07;;;;;;;;;2.00;1.25;;;;;21.26;35.57;101240.63;5080238;27;45347;-70
2023/04/07 09:18:32;;;;;;;;;2.00;1.00;;;;;21.29;35.54;101252.91;5098424;27;52816;-70
2023/04/07 09:21:00;;;;;;;;;2.00;2.00;;;;;21.22;35.42;101236.44;5066771;27;45331;-70
2023/04/07 09:23:30;;;;;;;;;3.00;2.00;;;;;21.28;35.31;101246.69;5079901;27;45409;-70
2023/04/07 09:25:58;;;;;;;;;3.00;1.00;;;;;21.28;35.40;101253.84;5063569;27;45442;-70
2023/04/07 09:28:24;;;;;;;;;3.75;2.00;;;;;21.28;35.23;101249.34;5070537;27;45768;-70
2023/04/07 09:30:53;;;;;;;;;3.00;2.00;;;;;21.27;35.65;101250.34;5079783;28;45550;-70
2023/04/07 09:33:26;;;;;;;;;2.00;2.00;;;;;21.27;35.39;101246.81;5063857;27;45400;-70
2023/04/07 09:35:52;;;;;;;;;5.00;1.25;;;;;21.27;35.13;101254.81;5063368;28;45466;-70
2023/04/07 09:38:17;;;;;;;;;2.00;2.00;;;;;21.26;35.28;101251.28;5074904;27;45358;-70
2023/04/07 09:40:43;;;;;;;;;2.00;2.00;;;;;21.28;35.54;101253.84;5091089;27;71621;-70
2023/04/07 09:43:15;;;;;;;;;4.00;2.00;;;;;21.28;35.21;101248.50;5075939;27;61736;-70
2023/04/07 09:45:41;;;;;;;;;2.00;2.00;;;;;21.28;35.20;101245.84;5096198;27;45408;-70
2023/04/07 09:48:07;;;;;;;;;3.00;2.50;;;;;21.27;35.22;101249.47;5067003;28;61689;-70
2023/04/07 09:50:40;;;;;;;;;2.00;2.00;;;;;21.29;35.25;101255.56;5065818;27;47394;-70
2023/04/07 09:53:06;;;;;;;;;3.50;1.75;;;;;21.28;35.16;101246.69;5073385;27;45400;-70
2023/04/07 09:55:32;;;;;;;;;2.25;1.00;;;;;21.26;35.21;101242.44;5078197;27;59202;-70
2023/04/07 09:57:58;;;;;;;;;2.75;1.00;;;;;21.25;35.74;101244.25;5071652;27;45481;-70
2023/04/07 10:00:24;;;;;;;;;2.00;2.00;;;;;21.24;35.42;101240.72;5062744;28;47559;-70
2023/04/07 10:02:50;;;;;;;;;1.50;1.00;;;;;21.24;35.10;101247.84;5094558;27;45228;-70
2023/04/07 10:05:15;;;;;;;;;4.75;2.25;;;;;21.27;35.54;101246.81;5093175;27;45312;-70
2023/04/07 10:07:41;;;;;;;;;1.00;1.00;;;;;21.29;35.44;101239.59;5077496;27;45463;-70
2023/04/07 10:10:07;;;;;;;;;1.50;1.50;;;;;21.25;35.20;101246.91;5065958;27;48142;-70
2023/04/07 10:12:37;;;;;;;;;4.50;2.25;;;;;21.28;35.41;101248.50;5078184;27;45300;-70
2023/04/07 10:15:02;;;;;;;;;1.00;1.00;;;;;21.27;35.55;101246.81;5063450;28;45433;-70
2023/04/07 10:17:28;;;;;;;;;4.00;1.25;;;;;21.29;35.33;101252.91;5076969;27;45635;-70
2023/04/07 10:19:57;;;;;;;;;2.75;1.25;;;;;21.29;35.31;101245.75;5058202;28;48329;-70
2023/04/07 10:22:24;;;;;;;;;0.00;0.00;;;;;21.27;35.60;101239.69;5066260;27;45247;-70
2023/04/07 10:25:09;;;;;;;;;1.00;1.00;;;;;21.26;35.57;101245.09;5075523;28;45454;-70
2023/04/07 10:27:48;;;;;;;;;2.00;2.00;;;;;21.28;35.26;101248.50;5056457;27;45572;-70
2023/04/07 10:30:17;;;;;;;;;6.50;2.00;;;;;21.27;34.87;101247.66;5078044;27;45478;-70
2023/04/07 10:32:50;;;;;;;;;2.00;1.00;;;;;21.28;35.17;101249.34;5064691;28;45320;-70
2023/04/07 10:35:16;;;;;;;;;2.25;1.50;;;;;21.27;35.04;101249.47;5074980;27;45260;-70
2023/04/07 10:38:07;;;;;;;;;2.75;1.50;;;;;21.29;35.64;101251.09;5095895;27;60407;-70
2023/04/07 10:40:33;;;;;;;;;2.00;1.50;;;;;21.28;35.19;101249.34;5096070;27;45569;-70
2023/04/07 10:42:59;;;;;;;;;1.00;0.25;;;;;21.27;35.31;101253.00;5054916;27;46143;-70
2023/04/07 10:45:54;;;;;;;;;6.00;2.00;;;;;21.28;35.40;101257.34;5068303;27;45348;-70
2023/04/07 10:48:21;;;;;;;;;3.00;1.00;;;;;21.28;35.32;101245.84;5098575;27;45278;-70
2023/04/07 10:51:05;;;;;;;;;1.25;1.25;;;;;21.28;35.36;101243.19;5088179;27;45416;-70
2023/04/07 10:53:31;;;;;;;;;4.50;1.50;;;;;21.28;35.31;101248.50;5092511;27;45606;-70
2023/04/07 10:55:58;;;;;;;;;2.00;2.00;;;;;21.25;35.29;101241.59;5054688;27;45398;-70
2023/04/07 10:58:27;;;;;;;;;1.00;1.00;;;;;21.26;35.27;101242.44;5081487;27;45329;-70
2023/04/07 11:00:59;;;;;;;;;4.00;2.00;;;;;21.29;34.89;101247.56;5054651;27;47152;-70
2023/04/07 11:03:26;;;;;;;;;1.75;1.00;;;;;21.28;35.36;101243.19;5099739;27;45693;-70
2023/04/07 11:05:52;;;;;;;;;1.75;1.50;;;;;21.27;34.86;101236.19;5079095;27;45493;-70
2023/04/07 11:08:34;;;;;;;;;3.00;2.00;;;;;21.27;35.24;101241.50;5063319;27;68725;-70
2023/04/07 11:10:59;;;;;;;;;2.00;2.00;;;;;21.27;34.93;101238.84;5078155;27;45557;-70
2023/04/07 11:13:26;;;;;;;;;1.00;1.00;;;;;21.24;34.82;101230.06;5080946;27;45360;-70
2023/04/07 11:15:51;;;;;;;;;2.00;2.00;;;;;21.27;35.21;101246.81;5078331;27;45451;-70
2023/04/07 11:18:19;;;;;;;;;1.50;1.50;;;;;21.24;35.14;101243.38;5077689;27;63358;-70
2023/04/07 11:20:45;;;;;;;;;2.00;2.00;;;;;21.26;34.77;101235.28;5095995;27;45587;-70
2023/04/07 11:23:11;;;;;;;;;1.00;1.00;;;;;21.26;34.94;101237.13;5070959;28;45503;-70